createdAt,value
2018-03-26T00:01:12.514Z,52.08
2018-03-26T00:03:38.503Z,55.33
2018-03-26T00:06:04.547Z,55.70
2018-03-26T00:08:30.573Z,52.62
2018-03-26T00:10:56.594Z,51.60
2018-03-26T00:13:22.606Z,64.18
2018-03-26T00:15:48.597Z,85.93
2018-03-26T00:18:14.601Z,90.20
2018-03-26T00:20:40.574Z,93.85
2018-03-26T00:23:06.597Z,76.65
2018-03-26T00:25:32.609Z,68.40
2018-03-26T00:27:58.614Z,43.45
2018-03-26T00:30:24.630Z,43.10
2018-03-26T00:32:50.653Z,33.58
2018-03-26T00:35:16.741Z,27.23
2018-03-26T00:37:42.710Z,23.27
2018-03-26T00:40:08.807Z,23.70
2018-03-26T00:42:34.831Z,27.25
2018-03-26T00:45:00.878Z,27.92
2018-03-26T00:47:26.905Z,27.13
2018-03-26T00:49:52.914Z,25.73
2018-03-26T00:52:18.935Z,25.65
2018-03-26T00:54:44.961Z,36.75
2018-03-26T00:57:10.941Z,43.60
2018-03-26T00:59:36.941Z,33.83
2018-03-26T01:02:03.034Z,36.95
2018-03-26T01:04:29.144Z,34.95
2018-03-26T01:06:55.181Z,39.97
2018-03-26T01:09:21.165Z,37.53
2018-03-26T01:11:47.253Z,34.15
2018-03-26T01:14:13.350Z,32.72
2018-03-26T01:16:39.391Z,32.00
2018-03-26T01:19:05.397Z,47.78
2018-03-26T01:21:31.529Z,57.53
2018-03-26T01:23:57.695Z,43.78
2018-03-26T01:26:23.758Z,48.47
2018-03-26T01:28:49.755Z,41.90
2018-03-26T01:31:15.764Z,40.12
2018-03-26T01:33:41.872Z,38.10
2018-03-26T01:36:07.877Z,41.13
2018-03-26T01:38:33.856Z,37.33
2018-03-26T01:41:00.775Z,40.90
2018-03-26T01:43:26.746Z,35.20
2018-03-26T01:45:52.780Z,44.28
2018-03-26T01:48:18.788Z,34.75
2018-03-26T01:50:44.789Z,34.47
2018-03-26T01:53:10.862Z,26.95
2018-03-26T01:55:36.878Z,43.90
2018-03-26T01:58:02.887Z,35.75
2018-03-26T02:00:28.870Z,37.78
2018-03-26T02:02:54.843Z,31.50
2018-03-26T02:05:20.850Z,31.10
2018-03-26T02:07:46.833Z,35.25
2018-03-26T02:10:12.855Z,31.85
2018-03-26T02:12:38.839Z,23.30
2018-03-26T02:15:04.824Z,25.35
2018-03-26T02:17:30.853Z,29.35
2018-03-26T02:19:56.877Z,27.83
2018-03-26T02:22:22.935Z,23.33
2018-03-26T02:24:49.056Z,27.00
2018-03-26T02:27:15.068Z,35.10
2018-03-26T02:29:41.133Z,33.03
2018-03-26T02:32:07.306Z,32.53
2018-03-26T02:34:33.455Z,54.38
2018-03-26T02:36:59.566Z,53.25
2018-03-26T02:39:25.589Z,37.53
2018-03-26T02:41:52.653Z,34.38
2018-03-26T02:44:18.670Z,52.03
2018-03-26T02:46:44.694Z,38.15
2018-03-26T02:49:10.708Z,33.33
2018-03-26T02:51:36.678Z,36.63
2018-03-26T02:54:02.688Z,35.78
2018-03-26T02:56:28.718Z,44.17
2018-03-26T02:58:54.749Z,29.67
2018-03-26T03:01:20.818Z,37.72
2018-03-26T03:03:46.804Z,25.48
2018-03-26T03:06:12.866Z,35.78
2018-03-26T03:08:38.847Z,43.03
2018-03-26T03:11:04.892Z,45.28
2018-03-26T03:13:30.877Z,33.72
2018-03-26T03:15:56.899Z,55.88
2018-03-26T03:18:22.894Z,51.60
2018-03-26T03:20:48.888Z,25.92
2018-03-26T03:23:15.711Z,39.42
2018-03-26T03:25:41.816Z,45.92
2018-03-26T03:28:07.906Z,37.67
2018-03-26T03:30:33.933Z,36.92
2018-03-26T03:32:59.958Z,33.20
2018-03-26T03:35:26.042Z,36.53
2018-03-26T03:37:52.031Z,48.22
2018-03-26T03:40:18.055Z,32.50
2018-03-26T03:42:44.114Z,36.40
2018-03-26T03:45:10.192Z,46.72
2018-03-26T03:47:36.187Z,28.67
2018-03-26T03:50:02.176Z,37.72
2018-03-26T03:52:28.301Z,30.55
2018-03-26T03:54:54.309Z,25.88
2018-03-26T03:57:20.346Z,35.63
2018-03-26T03:59:46.337Z,26.48
2018-03-26T04:02:12.376Z,45.35
2018-03-26T04:04:38.341Z,68.43
2018-03-26T04:07:04.368Z,62.95
2018-03-26T04:09:30.416Z,38.90
2018-03-26T04:11:56.400Z,36.10
2018-03-26T04:14:22.378Z,52.25
2018-03-26T04:16:48.400Z,52.03
2018-03-26T04:19:14.436Z,47.05
2018-03-26T04:21:40.389Z,67.12
2018-03-26T04:24:13.824Z,45.80
2018-03-26T04:26:39.919Z,48.65
2018-03-26T04:29:05.908Z,45.60
2018-03-26T04:31:31.988Z,44.83
2018-03-26T04:33:58.082Z,54.15
2018-03-26T04:36:24.088Z,47.67
2018-03-26T04:38:50.084Z,56.47
2018-03-26T04:41:16.243Z,57.72
2018-03-26T04:43:42.297Z,61.67
2018-03-26T04:46:08.373Z,80.10
2018-03-26T04:48:34.327Z,41.08
2018-03-26T04:51:00.400Z,54.92
2018-03-26T04:53:26.438Z,40.22
2018-03-26T04:55:52.451Z,54.08
2018-03-26T04:58:18.476Z,35.97
2018-03-26T05:00:44.498Z,47.70
2018-03-26T05:03:10.494Z,66.15
2018-03-26T05:05:36.536Z,53.80
2018-03-26T05:08:02.558Z,48.92
2018-03-26T05:10:28.582Z,40.42
2018-03-26T05:12:54.573Z,52.75
2018-03-26T05:15:20.578Z,50.25
2018-03-26T05:17:46.557Z,43.90
2018-03-26T05:20:12.550Z,42.13
2018-03-26T05:22:38.529Z,39.13
2018-03-26T05:25:04.534Z,47.78
2018-03-26T05:27:30.569Z,34.20
2018-03-26T05:29:56.577Z,32.55
2018-03-26T05:32:22.588Z,49.40
2018-03-26T05:34:48.579Z,35.80
2018-03-26T05:37:14.613Z,29.87
2018-03-26T05:39:40.612Z,30.00
2018-03-26T05:42:06.643Z,32.42
2018-03-26T05:44:32.784Z,34.42
2018-03-26T05:46:58.832Z,39.38
2018-03-26T05:49:24.865Z,38.47
2018-03-26T05:51:50.863Z,41.05
2018-03-26T05:54:16.886Z,35.83
2018-03-26T05:56:42.890Z,44.10
2018-03-26T05:59:08.873Z,43.80
2018-03-26T06:01:34.934Z,42.97
2018-03-26T06:04:00.974Z,36.53
2018-03-26T06:06:26.985Z,34.85
2018-03-26T06:08:52.973Z,31.40
2018-03-26T06:11:18.995Z,24.90
2018-03-26T06:13:45.119Z,18.50
2018-03-26T06:16:11.822Z,18.48
2018-03-26T06:18:37.881Z,21.12
2018-03-26T06:21:03.974Z,27.27
2018-03-26T06:23:29.990Z,25.50
2018-03-26T06:25:56.094Z,21.65
2018-03-26T06:28:23.114Z,19.80
2018-03-26T06:30:49.206Z,22.80
2018-03-26T06:33:15.227Z,31.05
2018-03-26T06:35:41.278Z,31.37
2018-03-26T06:38:13.468Z,30.17
2018-03-26T06:40:40.383Z,31.02
2018-03-26T06:43:06.404Z,27.90
2018-03-26T06:47:13.589Z,23.58
2018-03-26T06:49:39.621Z,28.63
2018-03-26T06:52:05.618Z,25.62
2018-03-26T06:54:31.750Z,27.02
2018-03-26T06:56:57.969Z,22.48
2018-03-26T06:59:24.110Z,23.02
2018-03-26T07:01:50.154Z,18.08
2018-03-26T07:04:16.196Z,24.15
2018-03-26T07:06:42.258Z,19.65
2018-03-26T07:09:08.317Z,23.95
2018-03-26T07:11:34.315Z,26.20
2018-03-26T07:14:00.299Z,20.98
2018-03-26T07:16:26.368Z,22.48
2018-03-26T07:18:52.439Z,17.33
2018-03-26T07:21:19.998Z,21.50
2018-03-26T07:23:46.278Z,15.40
2018-03-26T07:26:12.331Z,16.75
2018-03-26T07:28:38.330Z,21.05
2018-03-26T07:31:04.378Z,17.85
2018-03-26T07:33:30.439Z,16.05
2018-03-26T07:35:56.522Z,14.70
2018-03-26T07:38:22.518Z,17.58
2018-03-26T07:40:48.516Z,16.60
2018-03-26T07:43:14.546Z,14.87
2018-03-26T07:45:40.548Z,15.30
2018-03-26T07:48:06.564Z,18.70
2018-03-26T07:50:32.550Z,18.00
2018-03-26T07:52:58.616Z,17.92
2018-03-26T07:55:24.649Z,16.37
2018-03-26T07:57:50.677Z,18.05
2018-03-26T08:00:16.741Z,15.65
2018-03-26T08:02:42.789Z,16.90
2018-03-26T08:05:08.808Z,17.20
2018-03-26T08:07:34.852Z,18.37
2018-03-26T08:10:00.903Z,19.95
2018-03-26T08:12:27.020Z,17.02
2018-03-26T08:14:53.062Z,17.37
2018-03-26T08:17:19.146Z,16.85
2018-03-26T08:19:45.121Z,16.95
2018-03-26T08:22:11.208Z,14.15
2018-03-26T08:24:37.289Z,14.80
2018-03-26T08:27:03.294Z,15.32
2018-03-26T08:29:29.282Z,14.75
2018-03-26T08:31:55.389Z,15.27
2018-03-26T08:34:21.498Z,14.15
2018-03-26T08:36:47.510Z,15.93
2018-03-26T08:39:13.620Z,15.10
2018-03-26T08:41:40.401Z,13.65
2018-03-26T08:44:06.414Z,15.15
2018-03-26T08:46:32.575Z,16.23
2018-03-26T08:48:58.606Z,14.02
2018-03-26T08:51:24.632Z,16.48
2018-03-26T08:53:50.630Z,13.00
2018-03-26T08:56:16.700Z,13.88
2018-03-26T08:58:42.727Z,14.27
2018-03-26T09:01:08.753Z,13.93
2018-03-26T09:03:34.783Z,14.13
2018-03-26T09:06:00.797Z,19.65
2018-03-26T09:08:26.962Z,16.70
2018-03-26T09:10:52.969Z,18.85
2018-03-26T09:13:19.040Z,14.93
2018-03-26T09:15:45.040Z,16.60
2018-03-26T09:18:11.113Z,16.23
2018-03-26T09:20:43.240Z,21.43
2018-03-26T09:23:09.286Z,20.50
2018-03-26T09:25:35.313Z,14.95
2018-03-26T09:28:01.383Z,16.40
2018-03-26T09:30:27.570Z,32.72
2018-03-26T09:32:53.789Z,8.32
2018-03-26T09:35:19.830Z,15.60
2018-03-26T09:37:45.898Z,11.57
2018-03-26T09:40:11.939Z,13.27
2018-03-26T09:42:38.017Z,12.52
2018-03-26T09:45:04.065Z,11.77
2018-03-26T09:47:30.062Z,13.05
2018-03-26T09:49:56.174Z,13.77
2018-03-26T09:52:22.281Z,11.57
2018-03-26T09:54:48.262Z,11.67
2018-03-26T09:57:14.299Z,11.00
2018-03-26T09:59:40.403Z,10.77
2018-03-26T10:02:06.545Z,11.63
2018-03-26T10:04:32.574Z,14.03
2018-03-26T10:06:58.604Z,12.27
2018-03-26T10:09:24.684Z,12.70
2018-03-26T10:11:50.744Z,13.03
2018-03-26T10:14:16.876Z,10.40
2018-03-26T10:16:42.897Z,9.87
2018-03-26T10:19:08.935Z,10.07
2018-03-26T10:21:34.970Z,10.20
2018-03-26T10:24:01.099Z,12.10
2018-03-26T10:26:27.170Z,11.07
2018-03-26T10:28:53.174Z,10.00
2018-03-26T10:31:19.162Z,10.07
2018-03-26T10:33:45.207Z,13.90
2018-03-26T10:36:11.296Z,11.50
2018-03-26T10:38:37.385Z,10.47
2018-03-26T10:41:03.415Z,6.97
2018-03-26T10:43:29.530Z,7.93
2018-03-26T10:45:55.591Z,6.10
2018-03-26T10:48:21.654Z,6.47
2018-03-26T10:50:47.795Z,5.83
2018-03-26T10:53:13.898Z,4.93
2018-03-26T10:55:40.027Z,4.53
2018-03-26T10:58:06.076Z,4.13
2018-03-26T11:00:32.216Z,6.17
2018-03-26T11:02:58.234Z,6.57
2018-03-26T11:05:24.614Z,7.03
2018-03-26T11:07:50.660Z,5.60
2018-03-26T11:10:16.722Z,5.40
2018-03-26T11:12:42.722Z,7.27
2018-03-26T11:15:08.757Z,6.57
2018-03-26T11:17:34.769Z,6.47
2018-03-26T11:20:00.808Z,6.77
2018-03-26T11:22:26.794Z,7.53
2018-03-26T11:24:52.853Z,7.47
2018-03-26T11:27:18.950Z,7.90
2018-03-26T11:29:44.966Z,8.63
2018-03-26T11:32:10.990Z,9.73
2018-03-26T11:34:37.113Z,11.83
2018-03-26T11:37:03.167Z,10.03
2018-03-26T11:39:29.367Z,10.00
2018-03-26T11:41:55.463Z,10.40
2018-03-26T11:44:21.507Z,10.50
2018-03-26T11:46:47.499Z,14.17
2018-03-26T11:49:13.643Z,13.83
2018-03-26T11:51:39.806Z,15.97
2018-03-26T11:54:05.926Z,17.23
2018-03-26T11:56:31.933Z,15.07
2018-03-26T11:58:58.103Z,20.00
2018-03-26T12:01:24.286Z,20.97
2018-03-26T12:03:50.322Z,20.10
2018-03-26T12:06:16.337Z,20.77
2018-03-26T12:08:42.417Z,20.87
2018-03-26T12:11:08.491Z,21.60
2018-03-26T12:13:34.510Z,23.43
2018-03-26T12:16:00.595Z,22.87
2018-03-26T12:18:26.662Z,21.67
2018-03-26T12:20:56.523Z,24.13
2018-03-26T12:23:35.595Z,25.73
2018-03-26T12:26:01.723Z,24.73
2018-03-26T12:28:39.790Z,21.87
2018-03-26T12:31:05.944Z,23.73
2018-03-26T12:33:32.036Z,23.17
2018-03-26T12:35:58.195Z,29.10
2018-03-26T12:38:24.207Z,23.70
2018-03-26T12:40:52.386Z,24.20
2018-03-26T12:43:18.405Z,26.43
2018-03-26T12:45:56.543Z,25.63
2018-03-26T12:48:22.587Z,25.13
2018-03-26T12:51:00.715Z,28.53
2018-03-26T12:53:26.720Z,23.70
2018-03-26T12:55:52.758Z,27.97
2018-03-26T12:58:30.896Z,30.03
2018-03-26T13:01:09.007Z,22.90
2018-03-26T13:03:35.068Z,20.03
2018-03-26T13:06:01.125Z,22.50
2018-03-26T13:08:27.157Z,24.03
2018-03-26T13:10:53.326Z,20.53
2018-03-26T13:13:19.370Z,19.03
2018-03-26T13:15:45.387Z,17.17
2018-03-26T13:18:11.478Z,15.87
2018-03-26T13:20:37.583Z,14.97
2018-03-26T13:23:03.684Z,17.83
2018-03-26T13:25:29.699Z,15.27
2018-03-26T13:27:55.742Z,14.83
2018-03-26T13:30:21.864Z,15.13
2018-03-26T13:32:47.925Z,18.20
2018-03-26T13:35:14.008Z,16.97
2018-03-26T13:37:40.140Z,17.37
2018-03-26T13:40:06.239Z,22.07
2018-03-26T13:42:32.233Z,18.43
2018-03-26T13:44:58.218Z,17.13
2018-03-26T13:47:24.235Z,17.63
2018-03-26T13:49:50.247Z,16.77
2018-03-26T13:52:16.276Z,17.43
2018-03-26T13:54:42.287Z,19.03
2018-03-26T13:57:08.386Z,18.05
2018-03-26T13:59:34.392Z,18.55
2018-03-26T14:02:00.462Z,19.58
2018-03-26T14:04:26.494Z,22.75
2018-03-26T14:06:52.513Z,19.73
2018-03-26T14:09:30.639Z,18.17
2018-03-26T14:12:08.969Z,16.80
2018-03-26T14:14:47.126Z,16.65
2018-03-26T14:17:25.342Z,20.20
2018-03-26T14:19:51.457Z,19.23
2018-03-26T14:22:17.523Z,18.17
2018-03-26T14:24:43.595Z,17.98
2018-03-26T14:27:09.750Z,19.17
2018-03-26T14:29:35.934Z,18.40
2018-03-26T14:32:02.047Z,17.65
2018-03-26T14:34:28.084Z,14.27
2018-03-26T14:36:54.099Z,15.70
2018-03-26T14:39:20.292Z,14.30
2018-03-26T14:41:46.342Z,13.47
2018-03-26T14:44:12.410Z,13.03
2018-03-26T14:46:38.433Z,14.07
2018-03-26T14:49:04.482Z,16.87
2018-03-26T14:51:30.481Z,12.37
2018-03-26T14:53:56.483Z,13.73
2018-03-26T14:56:22.522Z,12.57
2018-03-26T14:58:48.534Z,11.90
2018-03-26T15:01:14.575Z,9.80
2018-03-26T15:03:40.640Z,12.40
2018-03-26T15:06:06.663Z,9.50
2018-03-26T15:08:32.707Z,10.87
2018-03-26T15:10:58.779Z,10.37
2018-03-26T15:13:24.833Z,9.13
2018-03-26T15:15:50.923Z,9.70
2018-03-26T15:18:16.950Z,9.53
2018-03-26T15:20:42.996Z,12.03
2018-03-26T15:23:09.027Z,11.33
2018-03-26T15:25:35.043Z,7.13
2018-03-26T15:28:01.134Z,8.17
2018-03-26T15:30:27.304Z,6.97
2018-03-26T15:32:53.329Z,8.30
2018-03-26T15:35:19.363Z,9.00
2018-03-26T15:37:45.454Z,8.97
2018-03-26T15:40:11.586Z,6.97
2018-03-26T15:42:37.750Z,10.87
2018-03-26T15:45:03.789Z,9.07
2018-03-26T15:47:29.824Z,10.97
2018-03-26T15:49:56.439Z,9.07
2018-03-26T15:52:22.496Z,9.93
2018-03-26T15:54:48.930Z,8.17
2018-03-26T15:57:15.000Z,6.93
2018-03-26T15:59:41.050Z,8.10
2018-03-26T16:02:06.953Z,7.30
2018-03-26T16:04:33.049Z,8.23
2018-03-26T16:06:59.171Z,6.67
2018-03-26T16:09:25.253Z,7.60
2018-03-26T16:11:51.368Z,6.03
2018-03-26T16:14:17.556Z,9.77
2018-03-26T16:16:43.597Z,6.47
2018-03-26T16:19:09.624Z,5.77
2018-03-26T16:21:35.756Z,8.37
2018-03-26T16:24:01.844Z,8.20
2018-03-26T16:26:27.904Z,9.67
2018-03-26T16:28:53.910Z,6.20
2018-03-26T16:31:20.148Z,7.93
2018-03-26T16:33:46.292Z,7.63
2018-03-26T16:36:12.921Z,6.43
2018-03-26T16:38:38.971Z,9.90
2018-03-26T16:41:05.093Z,7.37
2018-03-26T16:43:31.121Z,6.73
2018-03-26T16:45:57.151Z,11.27
2018-03-26T16:48:23.144Z,7.60
2018-03-26T16:50:49.274Z,7.90
2018-03-26T16:53:15.396Z,7.07
2018-03-26T16:55:41.393Z,6.97
2018-03-26T16:58:07.426Z,10.00
2018-03-26T17:00:33.722Z,9.65
2018-03-26T17:02:59.776Z,6.50
2018-03-26T17:05:25.899Z,6.62
2018-03-26T17:07:51.921Z,8.07
2018-03-26T17:10:17.966Z,9.98
2018-03-26T17:12:44.113Z,9.20
2018-03-26T17:15:10.271Z,6.90
2018-03-26T17:17:36.313Z,10.45
2018-03-26T17:20:02.450Z,10.55
2018-03-26T17:22:28.484Z,10.68
2018-03-26T17:24:54.516Z,11.10
2018-03-26T17:27:20.582Z,10.02
2018-03-26T17:29:46.610Z,8.35
2018-03-26T17:32:12.643Z,9.80
2018-03-26T17:34:38.682Z,13.13
2018-03-26T17:37:04.888Z,12.20
2018-03-26T17:39:30.895Z,11.98
2018-03-26T17:41:56.915Z,9.35
2018-03-26T17:44:22.988Z,7.72
2018-03-26T17:46:49.022Z,10.02
2018-03-26T17:49:15.124Z,10.73
2018-03-26T17:51:41.253Z,9.60
2018-03-26T17:54:07.331Z,13.68
2018-03-26T17:56:33.369Z,12.90
2018-03-26T17:58:59.499Z,13.27
2018-03-26T18:01:25.527Z,24.27
2018-03-26T18:03:52.317Z,16.75
2018-03-26T18:06:18.333Z,20.70
2018-03-26T18:08:44.349Z,21.45
2018-03-26T18:11:10.534Z,20.67
2018-03-26T18:13:36.592Z,36.38
2018-03-26T18:16:02.629Z,19.15
2018-03-26T18:18:28.660Z,20.92
2018-03-26T18:20:54.683Z,14.82
2018-03-26T18:23:20.680Z,20.08
2018-03-26T18:25:46.711Z,21.80
2018-03-26T18:28:12.783Z,25.75
2018-03-26T18:30:38.872Z,21.87
2018-03-26T18:33:04.939Z,22.92
2018-03-26T18:35:31.030Z,23.15
2018-03-26T18:37:57.140Z,22.15
2018-03-26T18:40:23.304Z,24.27
2018-03-26T18:42:50.048Z,17.83
2018-03-26T18:45:16.088Z,19.25
2018-03-26T18:47:42.248Z,19.27
2018-03-26T18:50:08.448Z,17.50
2018-03-26T18:52:34.534Z,24.98
2018-03-26T18:55:00.644Z,22.45
2018-03-26T18:57:26.734Z,20.92
2018-03-26T18:59:53.027Z,17.58
2018-03-26T19:02:19.228Z,19.92
2018-03-26T19:04:45.398Z,21.08
2018-03-26T19:07:12.170Z,19.25
2018-03-26T19:09:38.162Z,24.40
2018-03-26T19:12:04.254Z,23.65
2018-03-26T19:14:30.370Z,26.67
2018-03-26T19:16:58.116Z,25.42
2018-03-26T19:19:24.190Z,24.40
2018-03-26T19:21:50.293Z,20.70
2018-03-26T19:24:16.481Z,31.77
2018-03-26T19:26:42.634Z,23.05
2018-03-26T19:29:08.681Z,28.12
2018-03-26T19:31:34.926Z,22.70
2018-03-26T19:34:01.006Z,26.17
2018-03-26T19:36:27.038Z,25.50
2018-03-26T19:38:53.135Z,26.17
2018-03-26T19:41:19.402Z,15.35
2018-03-26T19:43:45.619Z,23.62
2018-03-26T19:46:11.806Z,23.40
2018-03-26T19:48:37.975Z,25.15
2018-03-26T19:51:04.095Z,20.98
2018-03-26T19:53:30.294Z,22.60
2018-03-26T19:55:56.376Z,23.25
2018-03-26T19:58:22.476Z,26.50
2018-03-26T20:00:48.457Z,22.10
2018-03-26T20:03:14.711Z,20.75
2018-03-26T20:05:40.776Z,22.55
2018-03-26T20:08:07.107Z,20.37
2018-03-26T20:10:33.190Z,22.87
2018-03-26T20:12:59.310Z,23.10
2018-03-26T20:15:25.513Z,29.48
2018-03-26T20:17:51.672Z,25.25
2018-03-26T20:20:17.879Z,24.77
2018-03-26T20:22:44.076Z,22.52
2018-03-26T20:25:10.081Z,26.15
2018-03-26T20:27:36.514Z,23.50
2018-03-26T20:30:02.679Z,23.10
2018-03-26T20:32:28.818Z,28.48
2018-03-26T20:34:54.906Z,26.50
2018-03-26T20:37:20.963Z,29.85
2018-03-26T20:39:47.082Z,27.55
2018-03-26T20:42:13.201Z,28.15
2018-03-26T20:44:39.277Z,25.77
2018-03-26T20:47:05.384Z,24.55
2018-03-26T20:49:31.517Z,23.40
2018-03-26T20:51:57.594Z,23.98
2018-03-26T20:54:23.658Z,26.23
2018-03-26T20:56:49.853Z,21.87
2018-03-26T20:59:16.024Z,23.45
2018-03-26T21:01:42.894Z,21.60
2018-03-26T21:04:08.885Z,25.45
2018-03-26T21:06:34.926Z,25.42
2018-03-26T21:09:00.969Z,22.92
2018-03-26T21:11:26.993Z,23.05
2018-03-26T21:13:53.016Z,23.62
2018-03-26T21:16:19.040Z,22.98
2018-03-26T21:18:45.077Z,27.50
2018-03-26T21:21:11.145Z,22.77
2018-03-26T21:23:37.382Z,27.85
2018-03-26T21:26:03.389Z,25.02
2018-03-26T21:28:29.411Z,29.52
2018-03-26T21:30:55.412Z,38.50
2018-03-26T21:33:21.420Z,35.42
2018-03-26T21:35:47.435Z,35.08
2018-03-26T21:38:13.552Z,34.53
2018-03-26T21:40:40.338Z,32.25
2018-03-26T21:43:06.395Z,33.08
2018-03-26T21:45:32.429Z,33.75
2018-03-26T21:47:58.410Z,33.30
2018-03-26T21:50:24.413Z,30.35
2018-03-26T21:52:50.422Z,32.60
2018-03-26T21:55:16.522Z,29.67
2018-03-26T21:57:42.726Z,30.08
2018-03-26T22:00:16.698Z,32.28
2018-03-26T22:02:42.773Z,32.03
2018-03-26T22:05:08.906Z,34.65
2018-03-26T22:07:35.032Z,34.65
2018-03-26T22:10:01.108Z,31.42
2018-03-26T22:12:27.183Z,40.42
2018-03-26T22:14:53.313Z,30.35
2018-03-26T22:17:26.262Z,41.58
2018-03-26T22:19:52.379Z,41.58
2018-03-26T22:22:18.447Z,35.78
2018-03-26T22:24:44.577Z,36.83
2018-03-26T22:27:10.688Z,36.95
2018-03-26T22:29:36.742Z,42.97
2018-03-26T22:32:02.772Z,41.65
2018-03-26T22:34:28.824Z,41.92
2018-03-26T22:36:54.855Z,44.53
2018-03-26T22:39:20.969Z,43.83
2018-03-26T22:41:46.956Z,45.67
2018-03-26T22:44:13.000Z,46.50
2018-03-26T22:46:39.027Z,44.15
2018-03-26T22:49:05.059Z,49.83
2018-03-26T22:51:31.185Z,46.37
2018-03-26T22:53:57.262Z,49.50
2018-03-26T22:56:23.298Z,50.08
2018-03-26T22:58:49.339Z,46.53
2018-03-26T23:01:15.494Z,41.85
2018-03-26T23:03:41.649Z,45.70
2018-03-26T23:06:07.763Z,46.13
2018-03-26T23:08:33.817Z,51.45
2018-03-26T23:10:59.969Z,51.08
2018-03-26T23:13:26.021Z,51.88
2018-03-26T23:15:52.171Z,51.22
2018-03-26T23:18:18.205Z,48.20
2018-03-26T23:20:44.272Z,43.25
2018-03-26T23:23:10.370Z,43.65
2018-03-26T23:25:36.452Z,51.25
2018-03-26T23:28:02.483Z,45.85
2018-03-26T23:30:28.522Z,44.95
2018-03-26T23:32:54.548Z,50.47
2018-03-26T23:35:20.581Z,48.13
2018-03-26T23:37:46.624Z,52.00
2018-03-26T23:40:12.618Z,55.90
2018-03-26T23:42:38.614Z,57.60
2018-03-26T23:45:04.641Z,54.70
2018-03-26T23:47:30.662Z,47.38
2018-03-26T23:49:56.685Z,56.42
2018-03-26T23:52:22.872Z,53.72
2018-03-26T23:54:48.929Z,51.95
2018-03-26T23:57:14.913Z,44.92
2018-03-26T23:59:41.500Z,43.65
